sensor_id;sensor_type;location;lat;lon;timestamp;P1;durP1;ratioP1;P2;durP2;ratioP2
51738;SDS011;37815;52.692;6.226;2023-03-01T00:02:23;9.93;;;4.93;;
51738;SDS011;37815;52.692;6.226;2023-03-01T00:07:24;7.40;;;4.88;;
51738;SDS011;37815;52.692;6.226;2023-03-01T00:12:24;9.02;;;5.13;;
51738;SDS011;37815;52.692;6.226;2023-03-01T00:17:25;8.73;;;5.55;;
51738;SDS011;37815;52.692;6.226;2023-03-01T00:22:27;8.75;;;5.35;;
51738;SDS011;37815;52.692;6.226;2023-03-01T00:27:30;8.20;;;5.40;;
51738;SDS011;37815;52.692;6.226;2023-03-01T00:32:31;8.57;;;5.45;;
51738;SDS011;37815;52.692;6.226;2023-03-01T00:37:31;8.15;;;4.65;;
51738;SDS011;37815;52.692;6.226;2023-03-01T00:42:32;7.55;;;5.10;;
51738;SDS011;37815;52.692;6.226;2023-03-01T00:47:33;13.30;;;5.60;;
51738;SDS011;37815;52.692;6.226;2023-03-01T00:52:33;9.25;;;5.13;;
51738;SDS011;37815;52.692;6.226;2023-03-01T00:57:34;8.73;;;5.53;;
51738;SDS011;37815;52.692;6.226;2023-03-01T01:02:35;6.68;;;5.22;;
51738;SDS011;37815;52.692;6.226;2023-03-01T01:07:35;8.23;;;5.70;;
51738;SDS011;37815;52.692;6.226;2023-03-01T01:12:36;7.85;;;4.88;;
51738;SDS011;37815;52.692;6.226;2023-03-01T01:17:37;11.93;;;5.95;;
51738;SDS011;37815;52.692;6.226;2023-03-01T01:22:38;7.88;;;4.82;;
51738;SDS011;37815;52.692;6.226;2023-03-01T01:27:38;8.13;;;5.10;;
51738;SDS011;37815;52.692;6.226;2023-03-01T01:32:39;9.75;;;5.47;;
51738;SDS011;37815;52.692;6.226;2023-03-01T01:37:39;7.32;;;4.75;;
51738;SDS011;37815;52.692;6.226;2023-03-01T01:42:40;8.95;;;5.22;;
51738;SDS011;37815;52.692;6.226;2023-03-01T01:47:41;8.80;;;5.53;;
51738;SDS011;37815;52.692;6.226;2023-03-01T01:52:41;8.70;;;5.40;;
51738;SDS011;37815;52.692;6.226;2023-03-01T01:57:45;9.15;;;5.97;;
51738;SDS011;37815;52.692;6.226;2023-03-01T02:02:50;6.25;;;4.47;;
51738;SDS011;37815;52.692;6.226;2023-03-01T02:07:56;8.02;;;5.35;;
51738;SDS011;37815;52.692;6.226;2023-03-01T02:12:58;8.57;;;5.03;;
51738;SDS011;37815;52.692;6.226;2023-03-01T02:18:02;8.40;;;5.20;;
51738;SDS011;37815;52.692;6.226;2023-03-01T02:23:03;7.70;;;5.07;;
51738;SDS011;37815;52.692;6.226;2023-03-01T02:28:08;9.00;;;4.82;;
51738;SDS011;37815;52.692;6.226;2023-03-01T02:33:13;8.83;;;5.90;;
51738;SDS011;37815;52.692;6.226;2023-03-01T02:38:14;9.98;;;5.28;;
51738;SDS011;37815;52.692;6.226;2023-03-01T02:43:15;8.18;;;5.38;;
51738;SDS011;37815;52.692;6.226;2023-03-01T02:48:17;8.65;;;5.35;;
51738;SDS011;37815;52.692;6.226;2023-03-01T02:53:23;9.23;;;5.38;;
51738;SDS011;37815;52.692;6.226;2023-03-01T02:58:32;9.73;;;5.38;;
51738;SDS011;37815;52.692;6.226;2023-03-01T03:03:45;9.20;;;4.60;;
51738;SDS011;37815;52.692;6.226;2023-03-01T03:08:45;10.23;;;5.53;;
51738;SDS011;37815;52.692;6.226;2023-03-01T03:13:46;10.02;;;5.80;;
51738;SDS011;37815;52.692;6.226;2023-03-01T03:18:48;10.02;;;5.57;;
51738;SDS011;37815;52.692;6.226;2023-03-01T03:23:48;8.63;;;5.50;;
51738;SDS011;37815;52.692;6.226;2023-03-01T03:28:49;7.82;;;5.32;;
51738;SDS011;37815;52.692;6.226;2023-03-01T03:33:50;9.23;;;5.35;;
51738;SDS011;37815;52.692;6.226;2023-03-01T03:38:50;9.18;;;5.55;;
51738;SDS011;37815;52.692;6.226;2023-03-01T03:43:51;10.43;;;5.82;;
51738;SDS011;37815;52.692;6.226;2023-03-01T03:48:51;10.13;;;6.28;;
51738;SDS011;37815;52.692;6.226;2023-03-01T03:53:52;9.57;;;5.85;;
51738;SDS011;37815;52.692;6.226;2023-03-01T03:58:53;10.50;;;5.65;;
51738;SDS011;37815;52.692;6.226;2023-03-01T04:03:53;9.23;;;5.55;;
51738;SDS011;37815;52.692;6.226;2023-03-01T04:08:54;9.05;;;5.88;;
51738;SDS011;37815;52.692;6.226;2023-03-01T04:13:58;8.45;;;5.85;;
51738;SDS011;37815;52.692;6.226;2023-03-01T04:19:00;9.65;;;5.72;;
51738;SDS011;37815;52.692;6.226;2023-03-01T04:24:00;8.68;;;5.50;;
51738;SDS011;37815;52.692;6.226;2023-03-01T04:29:03;9.68;;;5.90;;
51738;SDS011;37815;52.692;6.226;2023-03-01T04:34:06;10.27;;;5.57;;
51738;SDS011;37815;52.692;6.226;2023-03-01T04:39:07;8.93;;;5.47;;
51738;SDS011;37815;52.692;6.226;2023-03-01T04:44:12;8.20;;;5.28;;
51738;SDS011;37815;52.692;6.226;2023-03-01T04:49:13;9.15;;;5.45;;
51738;SDS011;37815;52.692;6.226;2023-03-01T04:54:14;8.77;;;5.75;;
51738;SDS011;37815;52.692;6.226;2023-03-01T04:59:14;8.10;;;5.30;;
51738;SDS011;37815;52.692;6.226;2023-03-01T05:04:15;8.35;;;5.25;;
51738;SDS011;37815;52.692;6.226;2023-03-01T05:09:16;8.30;;;5.00;;
51738;SDS011;37815;52.692;6.226;2023-03-01T05:14:17;7.82;;;5.35;;
51738;SDS011;37815;52.692;6.226;2023-03-01T05:19:17;8.45;;;5.45;;
51738;SDS011;37815;52.692;6.226;2023-03-01T05:24:22;7.93;;;4.60;;
51738;SDS011;37815;52.692;6.226;2023-03-01T05:29:24;8.80;;;5.47;;
51738;SDS011;37815;52.692;6.226;2023-03-01T05:34:26;8.38;;;5.43;;
51738;SDS011;37815;52.692;6.226;2023-03-01T05:39:29;9.35;;;5.28;;
51738;SDS011;37815;52.692;6.226;2023-03-01T05:44:30;8.88;;;5.45;;
51738;SDS011;37815;52.692;6.226;2023-03-01T05:49:31;9.13;;;5.40;;
51738;SDS011;37815;52.692;6.226;2023-03-01T05:54:32;8.20;;;5.80;;
51738;SDS011;37815;52.692;6.226;2023-03-01T05:59:33;8.70;;;5.65;;
51738;SDS011;37815;52.692;6.226;2023-03-01T06:04:33;11.98;;;6.88;;
51738;SDS011;37815;52.692;6.226;2023-03-01T06:09:34;8.35;;;5.82;;
51738;SDS011;37815;52.692;6.226;2023-03-01T06:14:35;8.68;;;5.70;;
51738;SDS011;37815;52.692;6.226;2023-03-01T06:19:35;10.98;;;6.72;;
51738;SDS011;37815;52.692;6.226;2023-03-01T06:24:36;9.07;;;5.60;;
51738;SDS011;37815;52.692;6.226;2023-03-01T06:29:36;9.73;;;5.82;;
51738;SDS011;37815;52.692;6.226;2023-03-01T06:34:37;9.38;;;5.95;;
51738;SDS011;37815;52.692;6.226;2023-03-01T06:39:37;11.45;;;6.50;;
51738;SDS011;37815;52.692;6.226;2023-03-01T06:44:39;9.20;;;5.80;;
51738;SDS011;37815;52.692;6.226;2023-03-01T06:49:39;9.25;;;5.88;;
51738;SDS011;37815;52.692;6.226;2023-03-01T06:54:40;8.98;;;6.10;;
51738;SDS011;37815;52.692;6.226;2023-03-01T06:59:41;8.07;;;5.72;;
51738;SDS011;37815;52.692;6.226;2023-03-01T07:04:41;9.35;;;5.82;;
51738;SDS011;37815;52.692;6.226;2023-03-01T07:09:42;9.32;;;5.70;;
51738;SDS011;37815;52.692;6.226;2023-03-01T07:14:43;8.98;;;5.60;;
51738;SDS011;37815;52.692;6.226;2023-03-01T07:19:44;7.90;;;4.93;;
51738;SDS011;37815;52.692;6.226;2023-03-01T07:24:45;8.90;;;4.95;;
51738;SDS011;37815;52.692;6.226;2023-03-01T07:29:45;7.75;;;5.25;;
51738;SDS011;37815;52.692;6.226;2023-03-01T07:34:46;10.57;;;5.20;;
51738;SDS011;37815;52.692;6.226;2023-03-01T07:39:46;8.07;;;4.97;;
51738;SDS011;37815;52.692;6.226;2023-03-01T07:44:47;8.93;;;5.60;;
51738;SDS011;37815;52.692;6.226;2023-03-01T07:49:48;7.68;;;5.20;;
51738;SDS011;37815;52.692;6.226;2023-03-01T07:54:48;9.07;;;5.32;;
51738;SDS011;37815;52.692;6.226;2023-03-01T07:59:49;8.85;;;4.97;;
51738;SDS011;37815;52.692;6.226;2023-03-01T08:04:50;9.35;;;5.55;;
51738;SDS011;37815;52.692;6.226;2023-03-01T08:09:50;8.68;;;5.50;;
51738;SDS011;37815;52.692;6.226;2023-03-01T08:14:51;7.65;;;5.25;;
51738;SDS011;37815;52.692;6.226;2023-03-01T08:19:51;9.65;;;5.40;;
51738;SDS011;37815;52.692;6.226;2023-03-01T08:24:52;8.45;;;5.13;;
51738;SDS011;37815;52.692;6.226;2023-03-01T08:29:54;8.15;;;5.80;;
51738;SDS011;37815;52.692;6.226;2023-03-01T08:34:55;8.13;;;5.55;;
51738;SDS011;37815;52.692;6.226;2023-03-01T08:39:55;8.27;;;5.72;;
51738;SDS011;37815;52.692;6.226;2023-03-01T08:44:56;7.72;;;4.93;;
51738;SDS011;37815;52.692;6.226;2023-03-01T08:49:57;8.13;;;5.43;;
51738;SDS011;37815;52.692;6.226;2023-03-01T08:54:57;8.35;;;5.20;;
51738;SDS011;37815;52.692;6.226;2023-03-01T08:59:58;8.80;;;5.32;;
51738;SDS011;37815;52.692;6.226;2023-03-01T09:04:58;7.95;;;4.88;;
51738;SDS011;37815;52.692;6.226;2023-03-01T09:09:59;9.40;;;5.28;;
51738;SDS011;37815;52.692;6.226;2023-03-01T09:15:00;9.45;;;4.88;;
51738;SDS011;37815;52.692;6.226;2023-03-01T09:20:03;8.85;;;5.40;;
51738;SDS011;37815;52.692;6.226;2023-03-01T09:25:05;10.63;;;6.15;;
51738;SDS011;37815;52.692;6.226;2023-03-01T09:30:06;7.57;;;4.85;;
51738;SDS011;37815;52.692;6.226;2023-03-01T09:35:08;10.77;;;5.07;;
51738;SDS011;37815;52.692;6.226;2023-03-01T09:40:11;8.27;;;5.20;;
51738;SDS011;37815;52.692;6.226;2023-03-01T09:45:21;8.07;;;4.78;;
51738;SDS011;37815;52.692;6.226;2023-03-01T09:50:35;8.67;;;5.03;;
51738;SDS011;37815;52.692;6.226;2023-03-01T09:55:39;6.57;;;4.60;;
51738;SDS011;37815;52.692;6.226;2023-03-01T10:01:02;7.47;;;4.82;;
51738;SDS011;37815;52.692;6.226;2023-03-01T10:06:34;6.68;;;4.57;;
51738;SDS011;37815;52.692;6.226;2023-03-01T10:11:36;8.07;;;4.60;;
51738;SDS011;37815;52.692;6.226;2023-03-01T10:16:43;8.43;;;4.55;;
51738;SDS011;37815;52.692;6.226;2023-03-01T10:21:50;7.18;;;3.85;;
51738;SDS011;37815;52.692;6.226;2023-03-01T10:26:55;5.70;;;3.83;;
51738;SDS011;37815;52.692;6.226;2023-03-01T10:31:57;5.90;;;3.70;;
51738;SDS011;37815;52.692;6.226;2023-03-01T10:37:31;6.43;;;4.00;;
51738;SDS011;37815;52.692;6.226;2023-03-01T10:47:32;4.68;;;3.10;;
51738;SDS011;37815;52.692;6.226;2023-03-01T10:52:37;5.45;;;3.53;;
51738;SDS011;37815;52.692;6.226;2023-03-01T10:57:41;4.55;;;3.25;;
51738;SDS011;37815;52.692;6.226;2023-03-01T11:02:42;5.22;;;3.05;;
51738;SDS011;37815;52.692;6.226;2023-03-01T11:07:46;6.53;;;3.20;;
51738;SDS011;37815;52.692;6.226;2023-03-01T11:13:08;5.20;;;3.00;;
51738;SDS011;37815;52.692;6.226;2023-03-01T11:18:22;5.15;;;2.92;;
51738;SDS011;37815;52.692;6.226;2023-03-01T11:23:23;5.32;;;2.75;;
51738;SDS011;37815;52.692;6.226;2023-03-01T11:28:25;4.28;;;2.80;;
51738;SDS011;37815;52.692;6.226;2023-03-01T11:38:44;6.10;;;2.85;;
51738;SDS011;37815;52.692;6.226;2023-03-01T11:43:52;5.07;;;2.80;;
51738;SDS011;37815;52.692;6.226;2023-03-01T12:00:11;4.63;;;2.47;;
51738;SDS011;37815;52.692;6.226;2023-03-01T12:05:28;3.50;;;2.47;;
51738;SDS011;37815;52.692;6.226;2023-03-01T12:32:25;4.20;;;2.50;;
51738;SDS011;37815;52.692;6.226;2023-03-01T12:48:24;3.38;;;2.20;;
51738;SDS011;37815;52.692;6.226;2023-03-01T12:53:53;2.50;;;2.03;;
51738;SDS011;37815;52.692;6.226;2023-03-01T13:19:24;2.97;;;1.70;;
51738;SDS011;37815;52.692;6.226;2023-03-01T13:34:48;2.63;;;1.67;;
51738;SDS011;37815;52.692;6.226;2023-03-01T13:40:01;4.85;;;1.83;;
51738;SDS011;37815;52.692;6.226;2023-03-01T13:45:12;3.28;;;2.03;;
51738;SDS011;37815;52.692;6.226;2023-03-01T13:50:38;3.78;;;1.73;;
51738;SDS011;37815;52.692;6.226;2023-03-01T13:55:46;5.93;;;2.50;;
51738;SDS011;37815;52.692;6.226;2023-03-01T14:01:00;3.00;;;1.85;;
51738;SDS011;37815;52.692;6.226;2023-03-01T14:06:07;3.33;;;1.95;;
51738;SDS011;37815;52.692;6.226;2023-03-01T14:21:46;2.95;;;1.98;;
51738;SDS011;37815;52.692;6.226;2023-03-01T14:26:48;3.13;;;1.92;;
51738;SDS011;37815;52.692;6.226;2023-03-01T14:31:49;3.60;;;1.90;;
51738;SDS011;37815;52.692;6.226;2023-03-01T14:36:50;3.22;;;1.70;;
51738;SDS011;37815;52.692;6.226;2023-03-01T14:41:51;3.30;;;2.10;;
51738;SDS011;37815;52.692;6.226;2023-03-01T14:46:52;3.70;;;1.60;;
51738;SDS011;37815;52.692;6.226;2023-03-01T14:52:02;2.65;;;1.90;;
51738;SDS011;37815;52.692;6.226;2023-03-01T14:57:05;3.90;;;1.90;;
51738;SDS011;37815;52.692;6.226;2023-03-01T15:02:08;3.13;;;1.90;;
51738;SDS011;37815;52.692;6.226;2023-03-01T15:07:17;3.35;;;1.80;;
51738;SDS011;37815;52.692;6.226;2023-03-01T15:17:32;2.70;;;1.77;;
51738;SDS011;37815;52.692;6.226;2023-03-01T15:22:38;2.63;;;1.92;;
51738;SDS011;37815;52.692;6.226;2023-03-01T15:27:38;2.97;;;1.92;;
51738;SDS011;37815;52.692;6.226;2023-03-01T15:32:46;3.10;;;1.70;;
51738;SDS011;37815;52.692;6.226;2023-03-01T15:37:48;4.10;;;2.10;;
51738;SDS011;37815;52.692;6.226;2023-03-01T15:42:49;3.50;;;2.03;;
51738;SDS011;37815;52.692;6.226;2023-03-01T15:47:51;3.67;;;2.15;;
51738;SDS011;37815;52.692;6.226;2023-03-01T15:52:57;2.53;;;1.70;;
51738;SDS011;37815;52.692;6.226;2023-03-01T15:58:00;2.60;;;1.73;;
51738;SDS011;37815;52.692;6.226;2023-03-01T16:03:13;3.83;;;1.90;;
51738;SDS011;37815;52.692;6.226;2023-03-01T16:08:14;3.90;;;2.25;;
51738;SDS011;37815;52.692;6.226;2023-03-01T16:13:16;5.05;;;1.95;;
51738;SDS011;37815;52.692;6.226;2023-03-01T16:18:17;4.25;;;1.83;;
51738;SDS011;37815;52.692;6.226;2023-03-01T16:23:18;3.50;;;2.15;;
51738;SDS011;37815;52.692;6.226;2023-03-01T16:28:18;4.03;;;2.05;;
51738;SDS011;37815;52.692;6.226;2023-03-01T16:33:19;4.30;;;2.03;;
51738;SDS011;37815;52.692;6.226;2023-03-01T16:38:21;3.95;;;2.20;;
51738;SDS011;37815;52.692;6.226;2023-03-01T16:43:22;3.60;;;2.10;;
51738;SDS011;37815;52.692;6.226;2023-03-01T16:48:22;3.60;;;1.98;;
51738;SDS011;37815;52.692;6.226;2023-03-01T16:53:23;3.72;;;1.90;;
51738;SDS011;37815;52.692;6.226;2023-03-01T16:58:24;5.40;;;2.47;;
51738;SDS011;37815;52.692;6.226;2023-03-01T17:03:25;4.50;;;2.20;;
51738;SDS011;37815;52.692;6.226;2023-03-01T17:08:26;4.47;;;2.45;;
51738;SDS011;37815;52.692;6.226;2023-03-01T17:13:26;4.30;;;1.92;;
51738;SDS011;37815;52.692;6.226;2023-03-01T17:18:27;3.45;;;1.85;;
51738;SDS011;37815;52.692;6.226;2023-03-01T17:23:29;4.55;;;2.42;;
51738;SDS011;37815;52.692;6.226;2023-03-01T17:28:31;4.05;;;2.20;;
51738;SDS011;37815;52.692;6.226;2023-03-01T17:33:33;3.72;;;1.70;;
51738;SDS011;37815;52.692;6.226;2023-03-01T17:38:33;3.05;;;2.00;;
51738;SDS011;37815;52.692;6.226;2023-03-01T17:43:36;3.67;;;2.17;;
51738;SDS011;37815;52.692;6.226;2023-03-01T17:48:37;4.10;;;2.15;;
51738;SDS011;37815;52.692;6.226;2023-03-01T17:53:37;4.70;;;2.40;;
51738;SDS011;37815;52.692;6.226;2023-03-01T17:58:38;4.22;;;2.40;;
51738;SDS011;37815;52.692;6.226;2023-03-01T18:03:39;3.45;;;2.17;;
51738;SDS011;37815;52.692;6.226;2023-03-01T18:08:41;3.85;;;2.35;;
51738;SDS011;37815;52.692;6.226;2023-03-01T18:13:42;4.20;;;2.25;;
51738;SDS011;37815;52.692;6.226;2023-03-01T18:18:43;4.35;;;2.40;;
51738;SDS011;37815;52.692;6.226;2023-03-01T18:23:44;4.50;;;2.10;;
51738;SDS011;37815;52.692;6.226;2023-03-01T18:28:45;4.78;;;2.83;;
51738;SDS011;37815;52.692;6.226;2023-03-01T18:33:53;4.63;;;2.50;;
51738;SDS011;37815;52.692;6.226;2023-03-01T18:38:54;4.30;;;2.50;;
51738;SDS011;37815;52.692;6.226;2023-03-01T18:43:55;4.00;;;2.40;;
51738;SDS011;37815;52.692;6.226;2023-03-01T18:48:56;4.57;;;2.58;;
51738;SDS011;37815;52.692;6.226;2023-03-01T18:53:57;4.80;;;2.90;;
51738;SDS011;37815;52.692;6.226;2023-03-01T18:58:58;7.47;;;3.20;;
51738;SDS011;37815;52.692;6.226;2023-03-01T19:03:59;8.15;;;4.25;;
51738;SDS011;37815;52.692;6.226;2023-03-01T19:08:59;6.00;;;3.40;;
51738;SDS011;37815;52.692;6.226;2023-03-01T19:14:00;7.65;;;3.88;;
51738;SDS011;37815;52.692;6.226;2023-03-01T19:19:03;8.80;;;3.83;;
51738;SDS011;37815;52.692;6.226;2023-03-01T19:24:04;7.25;;;4.00;;
51738;SDS011;37815;52.692;6.226;2023-03-01T19:29:06;7.93;;;3.60;;
51738;SDS011;37815;52.692;6.226;2023-03-01T19:34:09;6.72;;;3.53;;
51738;SDS011;37815;52.692;6.226;2023-03-01T19:39:11;7.60;;;4.22;;
51738;SDS011;37815;52.692;6.226;2023-03-01T19:44:12;7.88;;;4.22;;
51738;SDS011;37815;52.692;6.226;2023-03-01T19:49:13;7.63;;;3.90;;
51738;SDS011;37815;52.692;6.226;2023-03-01T19:54:13;7.30;;;3.92;;
51738;SDS011;37815;52.692;6.226;2023-03-01T19:59:19;9.45;;;4.55;;
51738;SDS011;37815;52.692;6.226;2023-03-01T20:04:23;9.93;;;4.55;;
51738;SDS011;37815;52.692;6.226;2023-03-01T20:09:24;8.35;;;4.63;;
51738;SDS011;37815;52.692;6.226;2023-03-01T20:14:24;8.85;;;4.80;;
51738;SDS011;37815;52.692;6.226;2023-03-01T20:19:25;10.32;;;4.78;;
51738;SDS011;37815;52.692;6.226;2023-03-01T20:24:25;9.27;;;4.72;;
51738;SDS011;37815;52.692;6.226;2023-03-01T20:29:26;8.80;;;4.50;;
51738;SDS011;37815;52.692;6.226;2023-03-01T20:34:27;10.60;;;5.47;;
51738;SDS011;37815;52.692;6.226;2023-03-01T20:39:27;10.60;;;5.50;;
51738;SDS011;37815;52.692;6.226;2023-03-01T20:44:28;9.77;;;5.47;;
51738;SDS011;37815;52.692;6.226;2023-03-01T20:49:29;9.18;;;4.75;;
51738;SDS011;37815;52.692;6.226;2023-03-01T20:54:29;9.85;;;4.85;;
51738;SDS011;37815;52.692;6.226;2023-03-01T20:59:30;10.23;;;4.97;;
51738;SDS011;37815;52.692;6.226;2023-03-01T21:04:34;8.60;;;4.75;;
51738;SDS011;37815;52.692;6.226;2023-03-01T21:09:34;9.82;;;5.47;;
51738;SDS011;37815;52.692;6.226;2023-03-01T21:14:35;10.70;;;5.82;;
51738;SDS011;37815;52.692;6.226;2023-03-01T21:19:42;12.68;;;6.13;;
51738;SDS011;37815;52.692;6.226;2023-03-01T21:24:43;11.23;;;5.60;;
51738;SDS011;37815;52.692;6.226;2023-03-01T21:29:44;11.50;;;5.10;;
51738;SDS011;37815;52.692;6.226;2023-03-01T21:34:45;11.82;;;5.68;;
51738;SDS011;37815;52.692;6.226;2023-03-01T21:39:46;11.05;;;5.80;;
51738;SDS011;37815;52.692;6.226;2023-03-01T21:44:47;10.07;;;5.80;;
51738;SDS011;37815;52.692;6.226;2023-03-01T21:49:47;9.93;;;5.45;;
51738;SDS011;37815;52.692;6.226;2023-03-01T21:54:49;9.98;;;5.45;;
51738;SDS011;37815;52.692;6.226;2023-03-01T21:59:51;12.02;;;6.00;;
51738;SDS011;37815;52.692;6.226;2023-03-01T22:04:52;10.57;;;6.00;;
51738;SDS011;37815;52.692;6.226;2023-03-01T22:09:56;11.52;;;5.70;;
51738;SDS011;37815;52.692;6.226;2023-03-01T22:14:57;9.70;;;5.85;;
51738;SDS011;37815;52.692;6.226;2023-03-01T22:19:57;11.00;;;5.88;;
51738;SDS011;37815;52.692;6.226;2023-03-01T22:24:58;12.93;;;6.55;;
51738;SDS011;37815;52.692;6.226;2023-03-01T22:29:59;12.93;;;6.47;;
51738;SDS011;37815;52.692;6.226;2023-03-01T22:34:59;12.43;;;5.90;;
51738;SDS011;37815;52.692;6.226;2023-03-01T22:40:00;13.32;;;7.03;;
51738;SDS011;37815;52.692;6.226;2023-03-01T22:45:02;15.02;;;6.95;;
51738;SDS011;37815;52.692;6.226;2023-03-01T22:50:04;12.80;;;6.95;;
51738;SDS011;37815;52.692;6.226;2023-03-01T22:55:06;11.73;;;6.15;;
51738;SDS011;37815;52.692;6.226;2023-03-01T23:00:08;12.52;;;6.07;;
51738;SDS011;37815;52.692;6.226;2023-03-01T23:05:12;14.85;;;6.90;;
51738;SDS011;37815;52.692;6.226;2023-03-01T23:10:13;13.18;;;6.65;;
51738;SDS011;37815;52.692;6.226;2023-03-01T23:15:15;12.00;;;6.38;;
51738;SDS011;37815;52.692;6.226;2023-03-01T23:20:15;12.27;;;6.15;;
51738;SDS011;37815;52.692;6.226;2023-03-01T23:25:16;13.52;;;6.63;;
51738;SDS011;37815;52.692;6.226;2023-03-01T23:30:17;12.20;;;6.45;;
51738;SDS011;37815;52.692;6.226;2023-03-01T23:35:18;11.88;;;6.38;;
51738;SDS011;37815;52.692;6.226;2023-03-01T23:40:18;13.13;;;6.85;;
51738;SDS011;37815;52.692;6.226;2023-03-01T23:45:19;12.85;;;6.00;;
51738;SDS011;37815;52.692;6.226;2023-03-01T23:50:20;14.50;;;6.93;;
51738;SDS011;37815;52.692;6.226;2023-03-01T23:55:21;14.07;;;6.70;;
